createdAt,value
2024-04-30T00:01:20.070Z,73.79
2024-04-30T00:03:48.119Z,74.12
2024-04-30T00:06:18.690Z,74.24
2024-04-30T00:08:48.502Z,73.73
2024-04-30T00:11:19.029Z,74.32
2024-04-30T00:13:49.632Z,73.87
2024-04-30T00:16:20.201Z,74.12
2024-04-30T00:18:48.154Z,74.19
2024-04-30T00:21:19.004Z,73.83
2024-04-30T00:23:46.920Z,74.58
2024-04-30T00:26:17.443Z,74.25
2024-04-30T00:28:45.532Z,73.94
2024-04-30T00:31:18.722Z,74.52
2024-04-30T00:33:46.768Z,74.34
2024-04-30T00:36:17.230Z,74.28
2024-04-30T00:38:45.166Z,74.72
2024-04-30T00:41:15.744Z,74.70
2024-04-30T00:43:46.346Z,74.52
2024-04-30T00:46:17.066Z,74.28
2024-04-30T00:48:47.719Z,74.66
2024-04-30T00:51:15.741Z,74.71
2024-04-30T00:53:46.270Z,74.50
2024-04-30T00:56:14.450Z,74.58
2024-04-30T00:58:45.496Z,74.80
2024-04-30T01:01:16.565Z,75.27
2024-04-30T01:03:47.305Z,75.00
2024-04-30T01:06:15.209Z,75.07
2024-04-30T01:08:45.739Z,75.22
2024-04-30T01:11:14.597Z,75.00
2024-04-30T01:13:45.183Z,75.00
2024-04-30T01:16:15.901Z,74.98
2024-04-30T01:18:46.438Z,74.90
2024-04-30T01:21:14.306Z,75.50
2024-04-30T01:23:47.501Z,75.63
2024-04-30T01:26:15.432Z,75.60
2024-04-30T01:28:45.893Z,75.70
2024-04-30T01:31:14.418Z,75.65
2024-04-30T01:33:44.869Z,75.68
2024-04-30T01:36:12.735Z,76.01
2024-04-30T01:38:43.185Z,75.98
2024-04-30T01:41:13.809Z,75.51
2024-04-30T01:43:44.343Z,76.07
2024-04-30T01:46:12.211Z,76.01
2024-04-30T01:48:42.784Z,75.84
2024-04-30T01:51:10.779Z,75.86
2024-04-30T01:53:46.016Z,75.68
2024-04-30T01:56:16.637Z,76.19
2024-04-30T01:58:47.410Z,75.98
2024-04-30T02:01:17.593Z,76.22
2024-04-30T02:03:48.392Z,76.27
2024-04-30T02:06:16.284Z,75.86
2024-04-30T02:08:46.805Z,76.44
2024-04-30T02:11:17.551Z,76.08
2024-04-30T02:13:48.325Z,76.38
2024-04-30T02:16:16.249Z,76.14
2024-04-30T02:18:46.803Z,76.77
2024-04-30T02:21:14.851Z,76.36
2024-04-30T02:23:45.300Z,76.49
2024-04-30T02:26:13.243Z,76.69
2024-04-30T02:28:46.425Z,76.85
2024-04-30T02:31:29.111Z,76.74
2024-04-30T02:34:08.082Z,76.45
2024-04-30T02:36:38.721Z,76.29
2024-04-30T02:39:10.530Z,76.72
2024-04-30T02:41:41.023Z,76.86
2024-04-30T02:44:14.447Z,76.49
2024-04-30T02:46:42.872Z,76.53
2024-04-30T02:49:13.501Z,76.99
2024-04-30T02:51:41.747Z,76.65
2024-04-30T02:54:12.339Z,76.90
2024-04-30T02:56:40.228Z,76.74
2024-04-30T02:59:13.920Z,76.73
2024-04-30T03:01:41.858Z,77.22
2024-04-30T03:04:12.421Z,76.81
2024-04-30T03:06:40.977Z,76.86
2024-04-30T03:09:11.491Z,76.95
2024-04-30T03:11:45.801Z,76.98
2024-04-30T03:14:19.146Z,77.11
2024-04-30T03:16:47.387Z,77.05
2024-04-30T03:19:17.858Z,77.43
2024-04-30T03:21:45.939Z,77.47
2024-04-30T03:24:16.488Z,77.63
2024-04-30T03:26:44.391Z,77.78
2024-04-30T03:29:14.882Z,77.20
2024-04-30T03:31:46.855Z,77.53
2024-04-30T03:34:21.351Z,77.08
2024-04-30T03:36:52.497Z,77.32
2024-04-30T03:39:23.122Z,77.66
2024-04-30T03:41:53.834Z,76.94
2024-04-30T03:44:24.377Z,77.19
2024-04-30T03:46:57.618Z,77.50
2024-04-30T03:49:25.646Z,77.14
2024-04-30T03:51:56.148Z,77.51
2024-04-30T03:54:24.117Z,77.37
2024-04-30T03:56:55.686Z,77.59
2024-04-30T03:59:24.433Z,77.52
2024-04-30T04:01:57.559Z,77.77
2024-04-30T04:04:25.714Z,77.56
2024-04-30T04:06:56.313Z,77.62
2024-04-30T04:09:24.239Z,77.33
2024-04-30T04:12:02.848Z,77.84
2024-04-30T04:14:43.426Z,77.62
2024-04-30T04:17:18.525Z,77.46
2024-04-30T04:19:50.564Z,77.04
2024-04-30T04:22:21.201Z,76.72
2024-04-30T04:24:51.735Z,76.66
2024-04-30T04:27:19.613Z,76.67
2024-04-30T04:29:50.162Z,76.66
2024-04-30T04:32:24.555Z,76.13
2024-04-30T04:34:52.534Z,75.98
2024-04-30T04:37:25.744Z,75.98
2024-04-30T04:39:55.281Z,76.10
2024-04-30T04:42:25.781Z,75.77
2024-04-30T04:44:53.723Z,75.79
2024-04-30T04:47:27.061Z,75.39
2024-04-30T04:49:55.095Z,74.92
2024-04-30T04:52:25.628Z,74.77
2024-04-30T04:54:53.583Z,74.75
2024-04-30T04:57:24.012Z,74.78
2024-04-30T04:59:53.668Z,74.62
2024-04-30T05:02:27.326Z,74.28
2024-04-30T05:04:55.315Z,74.33
2024-04-30T05:07:25.859Z,74.26
2024-04-30T05:09:53.878Z,74.26
2024-04-30T05:12:24.312Z,73.97
2024-04-30T05:14:55.277Z,73.75
2024-04-30T05:17:29.492Z,73.63
2024-04-30T05:19:57.430Z,73.44
2024-04-30T05:22:27.959Z,73.33
2024-04-30T05:24:56.155Z,72.97
2024-04-30T05:27:26.663Z,72.88
2024-04-30T05:29:57.708Z,72.51
2024-04-30T05:32:33.022Z,71.90
2024-04-30T05:35:01.052Z,71.60
2024-04-30T05:37:31.558Z,71.05
2024-04-30T05:39:59.508Z,70.68
2024-04-30T05:42:29.958Z,70.39
2024-04-30T05:44:57.875Z,69.63
2024-04-30T05:47:31.066Z,69.45
2024-04-30T05:49:58.987Z,69.53
2024-04-30T05:52:29.410Z,68.89
2024-04-30T05:54:57.285Z,68.60
2024-04-30T05:57:27.707Z,67.78
2024-04-30T05:59:55.727Z,66.61
2024-04-30T06:02:26.349Z,65.59
2024-04-30T06:04:56.953Z,64.93
2024-04-30T06:07:27.875Z,64.24
2024-04-30T06:09:55.746Z,63.63
2024-04-30T06:12:26.257Z,63.81
2024-04-30T06:14:54.238Z,63.94
2024-04-30T06:17:24.720Z,62.64
2024-04-30T06:19:52.660Z,62.00
2024-04-30T06:22:26.628Z,61.64
2024-04-30T06:24:56.298Z,61.10
2024-04-30T06:27:27.203Z,61.10
2024-04-30T06:29:57.777Z,61.05
2024-04-30T06:32:25.716Z,60.74
2024-04-30T06:34:56.666Z,60.12
2024-04-30T06:37:27.300Z,60.77
2024-04-30T06:39:58.078Z,60.44
2024-04-30T06:42:25.867Z,59.96
2024-04-30T06:44:56.372Z,59.42
2024-04-30T06:47:24.298Z,59.58
2024-04-30T06:49:54.927Z,59.09
2024-04-30T06:52:22.821Z,58.74
2024-04-30T06:54:56.049Z,58.46
2024-04-30T06:57:23.919Z,56.95
2024-04-30T06:59:54.369Z,56.63
2024-04-30T07:02:23.469Z,56.81
2024-04-30T07:04:54.035Z,55.48
2024-04-30T07:07:24.904Z,55.79
2024-04-30T07:09:55.549Z,55.13
2024-04-30T07:12:26.087Z,54.62
2024-04-30T07:14:53.919Z,54.30
2024-04-30T07:17:24.457Z,53.70
2024-04-30T07:19:52.425Z,53.85
2024-04-30T07:22:22.838Z,53.81
2024-04-30T07:24:50.694Z,53.67
2024-04-30T07:27:23.842Z,53.39
2024-04-30T07:29:51.679Z,53.71
2024-04-30T07:32:22.200Z,54.20
2024-04-30T07:34:50.259Z,54.92
2024-04-30T07:37:20.923Z,53.92
2024-04-30T07:39:48.919Z,53.47
2024-04-30T07:42:19.640Z,49.51
2024-04-30T07:44:50.182Z,47.09
2024-04-30T08:00:16.118Z,43.29
2024-04-30T08:02:46.552Z,42.56
2024-04-30T08:05:17.374Z,42.16
2024-04-30T08:07:45.328Z,42.72
2024-04-30T08:10:16.005Z,42.60
2024-04-30T08:12:43.855Z,42.06
2024-04-30T08:15:17.376Z,42.05
2024-04-30T08:17:45.445Z,42.12
2024-04-30T08:20:15.947Z,42.22
2024-04-30T08:22:43.879Z,42.12
2024-04-30T08:25:14.624Z,41.36
2024-04-30T08:27:42.503Z,42.31
2024-04-30T08:30:13.535Z,41.33
2024-04-30T08:32:44.784Z,41.26
2024-04-30T08:35:15.449Z,42.10
2024-04-30T08:37:51.500Z,43.63
2024-04-30T08:40:26.278Z,41.88
2024-04-30T08:42:54.266Z,41.93
2024-04-30T08:45:26.391Z,42.63
2024-04-30T08:47:58.737Z,40.90
2024-04-30T08:50:31.397Z,42.41
2024-04-30T08:53:01.949Z,41.67
2024-04-30T08:55:32.274Z,40.93
2024-04-30T08:58:03.216Z,40.73
2024-04-30T09:00:31.372Z,41.19
2024-04-30T09:03:06.861Z,41.46
2024-04-30T09:05:34.980Z,42.51
2024-04-30T09:08:07.300Z,42.69
2024-04-30T09:10:36.449Z,41.90
2024-04-30T09:13:07.293Z,41.73
2024-04-30T09:15:35.891Z,40.89
2024-04-30T09:18:12.806Z,42.10
2024-04-30T09:20:47.377Z,40.65
2024-04-30T09:23:29.564Z,41.83
2024-04-30T09:26:01.502Z,40.76
2024-04-30T09:28:29.437Z,41.25
2024-04-30T09:31:00.382Z,41.17
2024-04-30T09:33:34.130Z,40.55
2024-04-30T09:36:07.267Z,40.51
2024-04-30T09:38:41.719Z,41.21
2024-04-30T09:41:12.274Z,40.92
2024-04-30T09:43:43.685Z,41.06
2024-04-30T09:46:13.631Z,41.97
2024-04-30T09:48:48.246Z,41.28
2024-04-30T09:51:18.223Z,41.38
2024-04-30T09:53:50.783Z,42.57
2024-04-30T09:56:21.175Z,42.25
2024-04-30T09:58:51.888Z,42.14
2024-04-30T10:01:21.893Z,42.04
2024-04-30T10:03:57.332Z,40.84
2024-04-30T10:06:27.161Z,41.04
2024-04-30T10:08:57.769Z,41.26
2024-04-30T10:11:25.669Z,40.30
2024-04-30T10:13:57.869Z,42.42
2024-04-30T10:16:25.971Z,40.92
2024-04-30T10:19:08.231Z,41.49
2024-04-30T10:21:37.732Z,41.47
2024-04-30T10:24:20.250Z,41.49
2024-04-30T10:26:49.172Z,41.72
2024-04-30T10:29:20.280Z,41.16
2024-04-30T10:31:49.534Z,41.56
2024-04-30T10:34:23.231Z,41.30
2024-04-30T10:36:52.656Z,41.40
2024-04-30T10:39:29.358Z,42.05
2024-04-30T10:41:57.300Z,42.48
2024-04-30T10:44:27.844Z,42.25
2024-04-30T10:46:58.116Z,42.65
2024-04-30T10:49:31.336Z,42.40
2024-04-30T10:51:59.363Z,42.88
2024-04-30T10:54:31.557Z,42.39
2024-04-30T10:56:59.482Z,41.13
2024-04-30T10:59:30.438Z,42.42
2024-04-30T11:02:00.272Z,42.28
2024-04-30T11:04:34.352Z,42.86
2024-04-30T11:07:02.530Z,43.30
2024-04-30T11:09:33.017Z,41.78
2024-04-30T11:12:02.809Z,41.60
2024-04-30T11:14:33.356Z,43.20
2024-04-30T11:17:01.711Z,42.42
2024-04-30T11:19:34.914Z,42.24
2024-04-30T11:22:02.793Z,42.08
2024-04-30T11:24:33.305Z,42.48
2024-04-30T11:27:01.561Z,41.58
2024-04-30T11:29:38.363Z,41.65
2024-04-30T11:32:10.059Z,41.16
2024-04-30T11:34:43.976Z,42.36
2024-04-30T11:37:12.036Z,41.01
2024-04-30T11:39:42.545Z,41.34
2024-04-30T11:42:18.361Z,40.92
2024-04-30T11:44:55.467Z,40.93
2024-04-30T11:47:26.091Z,40.73
2024-04-30T11:49:56.677Z,40.17
2024-04-30T11:52:27.271Z,41.32
2024-04-30T11:54:55.139Z,41.71
2024-04-30T11:57:25.965Z,41.99
2024-04-30T11:59:54.856Z,40.08
2024-04-30T12:02:25.498Z,39.66
2024-04-30T12:04:56.386Z,39.53
2024-04-30T12:07:27.010Z,38.53
2024-04-30T12:09:55.122Z,39.68
2024-04-30T12:12:25.665Z,40.79
2024-04-30T12:14:53.448Z,40.14
2024-04-30T12:17:24.394Z,38.60
2024-04-30T12:19:52.390Z,38.80
2024-04-30T12:22:25.511Z,39.46
2024-04-30T12:24:53.375Z,37.98
2024-04-30T12:27:23.826Z,37.32
2024-04-30T12:29:51.640Z,36.91
2024-04-30T12:32:22.190Z,38.34
2024-04-30T12:34:50.001Z,38.43
2024-04-30T12:37:20.618Z,38.81
2024-04-30T12:39:52.432Z,38.19
2024-04-30T12:42:22.925Z,39.37
2024-04-30T12:44:50.787Z,38.71
2024-04-30T12:47:21.349Z,38.54
2024-04-30T12:49:49.733Z,38.45
2024-04-30T12:52:20.333Z,38.06
2024-04-30T12:54:50.917Z,38.97
2024-04-30T12:57:21.499Z,38.43
2024-04-30T12:59:49.251Z,38.02
2024-04-30T13:02:19.736Z,37.80
2024-04-30T13:04:49.500Z,38.35
2024-04-30T13:07:20.454Z,39.64
2024-04-30T13:09:50.989Z,39.42
2024-04-30T13:12:21.755Z,39.12
2024-04-30T13:14:49.608Z,39.45
2024-04-30T13:17:20.443Z,40.08
2024-04-30T13:19:51.076Z,40.81
2024-04-30T13:22:19.603Z,39.03
2024-04-30T13:24:50.095Z,39.80
2024-04-30T13:27:20.818Z,38.83
2024-04-30T13:29:51.313Z,38.72
2024-04-30T13:32:19.950Z,39.02
2024-04-30T13:34:50.745Z,38.62
2024-04-30T13:37:18.663Z,39.09
2024-04-30T13:39:49.296Z,39.50
2024-04-30T13:42:19.917Z,39.79
2024-04-30T13:44:50.369Z,40.21
2024-04-30T13:47:18.381Z,39.59
2024-04-30T13:49:49.494Z,39.26
2024-04-30T13:52:17.591Z,39.77
2024-04-30T13:54:48.062Z,39.37
2024-04-30T13:57:15.985Z,38.94
2024-04-30T13:59:49.168Z,38.03
2024-04-30T14:02:19.156Z,39.17
2024-04-30T14:04:50.430Z,38.36
2024-04-30T14:07:18.663Z,38.74
2024-04-30T14:09:49.136Z,39.73
2024-04-30T14:12:17.314Z,39.02
2024-04-30T14:14:50.523Z,39.38
2024-04-30T14:17:20.163Z,37.99
2024-04-30T14:19:51.103Z,37.96
2024-04-30T14:22:19.486Z,37.64
2024-04-30T14:24:49.923Z,37.44
2024-04-30T14:27:17.820Z,37.72
2024-04-30T14:29:51.538Z,37.84
2024-04-30T14:32:19.429Z,38.39
2024-04-30T14:34:50.627Z,37.52
2024-04-30T14:37:18.925Z,37.51
2024-04-30T14:39:49.952Z,37.77
2024-04-30T14:42:17.772Z,38.20
2024-04-30T14:44:52.337Z,37.11
2024-04-30T14:47:23.698Z,36.33
2024-04-30T14:49:54.443Z,36.86
2024-04-30T14:52:25.238Z,38.10
2024-04-30T14:54:53.088Z,36.39
2024-04-30T14:57:23.623Z,37.26
2024-04-30T14:59:57.012Z,36.97
2024-04-30T15:02:27.631Z,37.04
2024-04-30T15:04:55.491Z,37.09
2024-04-30T15:07:26.342Z,37.47
2024-04-30T15:09:55.245Z,36.94
2024-04-30T15:12:26.154Z,37.66
2024-04-30T15:14:59.370Z,37.65
2024-04-30T15:17:27.321Z,35.92
2024-04-30T15:19:57.746Z,35.83
2024-04-30T15:22:26.091Z,36.11
2024-04-30T15:24:56.708Z,36.35
2024-04-30T15:27:24.612Z,36.96
2024-04-30T15:29:55.142Z,36.41
2024-04-30T15:32:25.891Z,36.64
2024-04-30T15:34:56.481Z,36.80
2024-04-30T15:37:24.476Z,37.42
2024-04-30T15:39:54.980Z,37.74
2024-04-30T15:42:23.097Z,37.50
2024-04-30T15:44:53.632Z,36.52
2024-04-30T15:47:21.600Z,36.84
2024-04-30T15:49:54.857Z,36.78
2024-04-30T15:52:23.940Z,37.11
2024-04-30T15:54:57.516Z,36.42
2024-04-30T15:57:26.328Z,37.41
2024-04-30T15:59:56.782Z,38.76
2024-04-30T16:02:24.866Z,38.31
2024-04-30T16:04:58.077Z,38.47
2024-04-30T16:07:26.709Z,37.69
2024-04-30T16:09:57.494Z,38.14
2024-04-30T16:12:27.349Z,38.29
2024-04-30T16:14:58.209Z,38.91
2024-04-30T16:17:27.012Z,39.26
2024-04-30T16:20:01.179Z,38.82
2024-04-30T16:22:30.654Z,38.96
2024-04-30T16:25:01.374Z,38.31
2024-04-30T16:27:29.961Z,38.22
2024-04-30T16:30:01.226Z,38.49
2024-04-30T16:32:30.746Z,38.64
2024-04-30T16:35:04.246Z,38.41
2024-04-30T16:37:32.481Z,39.05
2024-04-30T16:40:03.896Z,38.87
2024-04-30T16:42:37.898Z,39.27
2024-04-30T16:45:07.624Z,39.62
2024-04-30T16:47:38.435Z,39.99
2024-04-30T16:50:09.694Z,39.76
2024-04-30T16:52:40.354Z,40.77
2024-04-30T16:55:08.526Z,41.27
2024-04-30T16:57:40.968Z,41.63
2024-04-30T17:00:12.279Z,41.78
2024-04-30T17:02:43.355Z,42.17
2024-04-30T17:05:14.804Z,42.37
2024-04-30T17:07:46.142Z,42.15
2024-04-30T17:10:14.585Z,42.36
2024-04-30T17:12:45.186Z,43.17
2024-04-30T17:15:14.876Z,43.72
2024-04-30T17:17:46.089Z,44.24
2024-04-30T17:20:20.241Z,43.96
2024-04-30T17:22:48.457Z,44.15
2024-04-30T17:25:19.077Z,44.20
2024-04-30T17:27:47.190Z,44.28
2024-04-30T17:30:18.016Z,45.19
2024-04-30T17:32:49.069Z,45.07
2024-04-30T17:35:19.764Z,45.29
2024-04-30T17:37:50.327Z,45.48
2024-04-30T17:40:18.210Z,45.38
2024-04-30T17:42:48.733Z,45.71
2024-04-30T17:45:16.858Z,46.03
2024-04-30T17:47:47.488Z,46.09
2024-04-30T17:50:15.891Z,46.78
2024-04-30T17:52:49.372Z,47.11
2024-04-30T17:55:17.344Z,46.79
2024-04-30T17:57:48.083Z,46.65
2024-04-30T18:00:16.860Z,46.51
2024-04-30T18:02:48.130Z,46.79
2024-04-30T18:05:16.120Z,47.32
2024-04-30T18:07:49.887Z,47.30
2024-04-30T18:10:20.919Z,47.54
2024-04-30T18:12:57.163Z,47.70
2024-04-30T18:15:25.228Z,47.73
2024-04-30T18:17:56.222Z,47.74
2024-04-30T18:20:24.457Z,47.99
2024-04-30T18:22:58.189Z,47.64
2024-04-30T18:25:26.756Z,47.95
2024-04-30T18:27:57.443Z,47.98
2024-04-30T18:30:25.376Z,48.20
2024-04-30T18:32:56.163Z,48.29
2024-04-30T18:35:24.463Z,48.96
2024-04-30T18:37:57.790Z,48.96
2024-04-30T18:40:26.004Z,49.26
2024-04-30T18:42:57.111Z,49.02
2024-04-30T18:45:25.415Z,48.91
2024-04-30T18:47:56.161Z,49.83
2024-04-30T18:50:27.851Z,49.87
2024-04-30T18:52:59.123Z,49.35
2024-04-30T18:55:30.962Z,49.39
2024-04-30T18:58:02.734Z,49.55
2024-04-30T19:00:31.013Z,49.63
2024-04-30T19:03:02.090Z,50.73
2024-04-30T19:05:30.247Z,50.91
2024-04-30T19:08:03.662Z,51.32
2024-04-30T19:10:32.585Z,51.04
2024-04-30T19:13:03.144Z,50.57
2024-04-30T19:15:31.371Z,50.61
2024-04-30T19:18:01.994Z,49.98
2024-04-30T19:20:30.688Z,49.67
2024-04-30T19:23:04.583Z,49.79
2024-04-30T19:25:32.815Z,49.99
2024-04-30T19:28:05.771Z,50.43
2024-04-30T19:30:35.770Z,50.04
2024-04-30T19:33:07.226Z,49.95
2024-04-30T19:35:36.838Z,50.60
2024-04-30T19:38:11.002Z,50.70
2024-04-30T19:40:39.457Z,50.39
2024-04-30T19:43:13.222Z,49.80
2024-04-30T19:45:44.392Z,49.89
2024-04-30T19:48:16.996Z,48.91
2024-04-30T19:50:51.384Z,49.01
2024-04-30T19:53:22.191Z,49.16
2024-04-30T19:55:53.016Z,49.39
2024-04-30T19:58:24.206Z,49.36
2024-04-30T20:00:55.362Z,49.09
2024-04-30T20:03:23.559Z,49.43
2024-04-30T20:05:54.512Z,49.83
2024-04-30T20:08:26.158Z,49.99
2024-04-30T20:10:57.145Z,50.75
2024-04-30T20:13:25.910Z,51.90
2024-04-30T20:15:56.667Z,52.39
2024-04-30T20:18:24.660Z,52.74
2024-04-30T20:20:55.852Z,53.14
2024-04-30T20:23:27.379Z,53.43
2024-04-30T20:25:58.865Z,53.73
2024-04-30T20:28:30.393Z,54.25
2024-04-30T20:30:58.498Z,54.65
2024-04-30T20:33:29.072Z,55.41
2024-04-30T20:35:57.512Z,56.17
2024-04-30T20:38:32.923Z,56.50
2024-04-30T20:41:01.138Z,56.97
2024-04-30T20:43:31.958Z,57.54
2024-04-30T20:46:00.454Z,58.32
2024-04-30T20:48:31.337Z,58.62
2024-04-30T20:50:59.625Z,59.13
2024-04-30T20:53:32.792Z,59.42
2024-04-30T20:56:00.648Z,60.04
2024-04-30T20:58:31.135Z,60.57
2024-04-30T21:00:59.108Z,61.08
2024-04-30T21:03:29.953Z,61.29
2024-04-30T21:05:57.840Z,61.59
2024-04-30T21:08:28.330Z,62.12
2024-04-30T21:10:58.909Z,62.49
2024-04-30T21:13:29.394Z,62.79
2024-04-30T21:15:58.463Z,62.98
2024-04-30T21:18:29.123Z,63.52
2024-04-30T21:20:56.990Z,63.97
2024-04-30T21:23:27.655Z,64.04
2024-04-30T21:25:58.594Z,64.15
2024-04-30T21:28:30.642Z,64.26
2024-04-30T21:30:58.728Z,64.72
2024-04-30T21:33:29.433Z,64.76
2024-04-30T21:35:57.488Z,65.21
2024-04-30T21:38:27.919Z,65.08
2024-04-30T21:40:58.596Z,65.05
2024-04-30T21:43:29.159Z,64.96
2024-04-30T21:45:57.039Z,64.88
2024-04-30T21:48:27.678Z,65.07
2024-04-30T21:50:55.744Z,65.30
2024-04-30T21:53:26.169Z,65.46
2024-04-30T21:55:54.054Z,65.24
2024-04-30T21:58:27.185Z,65.40
2024-04-30T22:00:55.092Z,65.17
2024-04-30T22:03:25.732Z,65.11
2024-04-30T22:05:53.680Z,64.93
2024-04-30T22:08:24.143Z,65.31
2024-04-30T22:10:52.315Z,65.13
2024-04-30T22:13:24.784Z,65.58
2024-04-30T22:15:55.623Z,65.39
2024-04-30T22:18:27.513Z,65.76
2024-04-30T22:20:55.888Z,65.65
2024-04-30T22:23:28.307Z,65.76
2024-04-30T22:25:56.302Z,66.12
2024-04-30T22:28:26.922Z,65.82
2024-04-30T22:30:58.004Z,66.24
2024-04-30T22:33:28.753Z,66.52
2024-04-30T22:35:56.897Z,67.07
2024-04-30T22:38:28.457Z,67.65
2024-04-30T22:40:56.477Z,67.92
2024-04-30T22:43:27.098Z,68.02
2024-04-30T22:45:58.393Z,68.24
2024-04-30T22:48:29.119Z,68.54
2024-04-30T22:50:58.902Z,68.45
2024-04-30T22:53:30.617Z,68.90
2024-04-30T22:56:01.044Z,68.71
2024-04-30T22:58:32.504Z,69.31
2024-04-30T23:01:03.221Z,69.39
2024-04-30T23:03:33.898Z,69.44
2024-04-30T23:06:01.814Z,69.32
2024-04-30T23:08:32.285Z,69.75
2024-04-30T23:11:02.250Z,70.05
2024-04-30T23:13:33.313Z,70.17
2024-04-30T23:16:04.098Z,70.29
2024-04-30T23:18:35.271Z,70.33
2024-04-30T23:21:03.333Z,70.62
2024-04-30T23:23:36.696Z,71.34
2024-04-30T23:26:08.241Z,70.67
2024-04-30T23:28:38.868Z,71.54
2024-04-30T23:31:09.368Z,71.58
2024-04-30T23:33:40.540Z,71.15
2024-04-30T23:36:08.779Z,71.13
2024-04-30T23:38:39.175Z,70.92
2024-04-30T23:41:07.849Z,71.69
2024-04-30T23:43:40.478Z,71.21
2024-04-30T23:46:11.149Z,71.50
2024-04-30T23:48:42.033Z,71.09
2024-04-30T23:51:12.217Z,71.13
2024-04-30T23:53:44.339Z,71.17
2024-04-30T23:56:13.435Z,71.45
2024-04-30T23:58:46.057Z,70.63
